createdAt,value
2023-05-24T00:00:09.679Z,18.69
2023-05-24T00:02:38.208Z,18.54
2023-05-24T00:05:08.271Z,18.42
2023-05-24T00:07:36.784Z,18.38
2023-05-24T00:10:04.964Z,18.39
2023-05-24T00:12:33.135Z,18.46
2023-05-24T00:15:00.568Z,18.41
2023-05-24T00:17:30.444Z,18.40
2023-05-24T00:19:58.319Z,18.36
2023-05-24T00:22:26.188Z,18.35
2023-05-24T00:24:53.612Z,18.25
2023-05-24T00:27:20.960Z,18.21
2023-05-24T00:29:48.569Z,18.23
2023-05-24T00:32:15.888Z,18.21
2023-05-24T00:34:43.395Z,18.12
2023-05-24T00:37:13.091Z,18.08
2023-05-24T00:39:40.576Z,17.98
2023-05-24T00:42:08.082Z,17.95
2023-05-24T00:44:35.833Z,17.87
2023-05-24T00:47:03.350Z,17.91
2023-05-24T00:49:31.570Z,17.81
2023-05-24T00:51:59.285Z,17.79
2023-05-24T00:54:27.108Z,17.65
2023-05-24T00:56:54.921Z,17.66
2023-05-24T00:59:23.250Z,17.48
2023-05-24T01:01:50.819Z,17.40
2023-05-24T01:04:20.621Z,17.51
2023-05-24T01:06:57.919Z,17.49
2023-05-24T01:09:40.776Z,17.43
2023-05-24T01:12:13.934Z,17.37
2023-05-24T01:14:56.909Z,17.50
2023-05-24T01:17:48.684Z,17.47
2023-05-24T01:20:17.786Z,17.44
2023-05-24T01:22:58.506Z,17.45
2023-05-24T01:25:53.612Z,17.48
2023-05-24T01:28:22.467Z,17.52
2023-05-24T01:30:54.830Z,17.34
2023-05-24T01:33:24.332Z,17.20
2023-05-24T01:35:51.743Z,17.24
2023-05-24T01:38:19.464Z,17.26
2023-05-24T01:40:50.095Z,17.05
2023-05-24T01:43:23.540Z,16.98
2023-05-24T01:45:54.277Z,17.00
2023-05-24T01:48:30.177Z,16.97
2023-05-24T01:51:01.478Z,17.09
2023-05-24T01:53:49.164Z,17.02
2023-05-24T01:56:17.546Z,17.04
2023-05-24T01:58:47.569Z,17.05
2023-05-24T02:01:15.179Z,16.92
2023-05-24T02:03:42.513Z,16.70
2023-05-24T02:06:10.966Z,16.83
2023-05-24T02:08:40.536Z,16.93
2023-05-24T02:11:08.048Z,16.76
2023-05-24T02:13:35.646Z,16.79
2023-05-24T02:16:05.289Z,16.92
2023-05-24T02:18:35.004Z,16.81
2023-05-24T02:21:03.322Z,16.80
2023-05-24T02:23:30.758Z,16.62
2023-05-24T02:26:00.311Z,16.74
2023-05-24T02:28:30.236Z,16.80
2023-05-24T02:30:58.105Z,16.69
2023-05-24T02:33:25.757Z,16.69
2023-05-24T02:35:53.378Z,16.79
2023-05-24T02:38:20.885Z,16.75
2023-05-24T02:40:48.481Z,16.54
2023-05-24T02:43:16.220Z,16.68
2023-05-24T02:45:43.671Z,16.62
2023-05-24T02:48:11.189Z,16.46
2023-05-24T02:50:38.745Z,16.46
2023-05-24T02:53:06.971Z,16.45
2023-05-24T02:55:34.533Z,16.49
2023-05-24T02:58:03.129Z,16.46
2023-05-24T03:00:32.162Z,16.30
2023-05-24T03:03:02.788Z,16.38
2023-05-24T03:05:30.568Z,16.38
2023-05-24T03:07:58.631Z,16.25
2023-05-24T03:10:26.195Z,16.31
2023-05-24T03:12:53.775Z,16.45
2023-05-24T03:15:21.425Z,16.47
2023-05-24T03:17:49.140Z,16.51
2023-05-24T03:20:17.885Z,16.39
2023-05-24T03:22:46.204Z,16.43
2023-05-24T03:25:14.663Z,16.52
2023-05-24T03:27:42.862Z,16.45
2023-05-24T03:30:10.630Z,16.23
2023-05-24T03:32:46.721Z,16.28
2023-05-24T03:35:14.218Z,16.28
2023-05-24T03:37:42.030Z,16.20
2023-05-24T03:40:10.162Z,16.18
2023-05-24T03:42:50.812Z,16.24
2023-05-24T03:45:30.497Z,16.23
2023-05-24T03:48:02.454Z,16.02
2023-05-24T03:50:30.053Z,16.18
2023-05-24T03:52:57.446Z,16.17
2023-05-24T03:55:25.785Z,16.12
2023-05-24T03:57:53.188Z,16.24
2023-05-24T04:00:20.739Z,16.15
2023-05-24T04:02:49.405Z,16.15
2023-05-24T04:05:16.940Z,16.13
2023-05-24T04:07:46.632Z,15.90
2023-05-24T04:10:14.312Z,16.00
2023-05-24T04:12:42.490Z,16.13
2023-05-24T04:15:10.159Z,16.13
2023-05-24T04:17:38.726Z,16.10
2023-05-24T04:20:06.781Z,16.22
2023-05-24T04:22:36.009Z,16.27
2023-05-24T04:25:04.001Z,16.28
2023-05-24T04:27:32.621Z,16.25
2023-05-24T04:30:00.511Z,16.28
2023-05-24T04:32:30.522Z,16.31
2023-05-24T04:34:58.328Z,16.40
2023-05-24T04:37:25.790Z,16.32
2023-05-24T04:39:53.296Z,16.27
2023-05-24T04:42:20.655Z,16.39
2023-05-24T04:44:48.113Z,16.38
2023-05-24T04:47:16.351Z,16.37
2023-05-24T04:49:43.635Z,16.44
2023-05-24T04:52:11.069Z,16.48
2023-05-24T04:54:38.531Z,16.57
2023-05-24T04:57:06.128Z,16.67
2023-05-24T04:59:33.582Z,16.73
2023-05-24T05:02:01.197Z,16.69
2023-05-24T05:04:28.914Z,16.76
2023-05-24T05:06:56.547Z,16.72
2023-05-24T05:09:24.965Z,16.79
2023-05-24T05:11:52.668Z,16.92
2023-05-24T05:14:20.140Z,17.08
2023-05-24T05:16:47.755Z,17.22
2023-05-24T05:19:15.256Z,17.30
2023-05-24T05:21:42.703Z,17.31
2023-05-24T05:24:10.167Z,17.37
2023-05-24T05:26:37.745Z,17.49
2023-05-24T05:29:05.339Z,17.62
2023-05-24T05:31:33.106Z,17.64
2023-05-24T05:34:00.534Z,17.70
2023-05-24T05:36:28.079Z,17.73
2023-05-24T05:38:55.792Z,17.80
2023-05-24T05:41:23.362Z,17.85
2023-05-24T05:43:50.767Z,17.90
2023-05-24T05:46:19.774Z,17.98
2023-05-24T05:48:47.624Z,18.11
2023-05-24T05:51:14.940Z,18.25
2023-05-24T05:53:42.423Z,18.28
2023-05-24T05:56:09.802Z,18.37
2023-05-24T05:58:39.061Z,18.34
2023-05-24T06:01:06.614Z,18.35
2023-05-24T06:03:34.338Z,18.41
2023-05-24T06:06:02.040Z,18.53
2023-05-24T06:08:35.010Z,18.71
2023-05-24T06:11:02.698Z,18.88
2023-05-24T06:13:31.423Z,19.06
2023-05-24T06:15:59.135Z,19.20
2023-05-24T06:18:27.785Z,19.17
2023-05-24T06:20:55.910Z,19.22
2023-05-24T06:23:23.572Z,19.27
2023-05-24T06:25:50.984Z,19.36
2023-05-24T06:28:18.493Z,19.51
2023-05-24T06:30:47.753Z,19.58
2023-05-24T06:36:23.571Z,19.73
2023-05-24T06:38:51.048Z,19.88
2023-05-24T06:41:18.441Z,20.00
2023-05-24T06:43:47.987Z,20.02
2023-05-24T06:46:15.722Z,20.03
2023-05-24T06:48:43.317Z,19.88
2023-05-24T06:51:11.142Z,19.93
2023-05-24T06:53:38.579Z,19.98
2023-05-24T06:56:06.042Z,20.08
2023-05-24T06:58:33.495Z,20.22
2023-05-24T07:01:01.027Z,20.40
2023-05-24T07:03:28.565Z,20.44
2023-05-24T07:05:56.109Z,20.64
2023-05-24T07:08:23.484Z,20.86
2023-05-24T07:10:50.958Z,20.86
2023-05-24T07:13:18.371Z,21.05
2023-05-24T07:15:46.307Z,21.29
2023-05-24T07:18:13.871Z,21.45
2023-05-24T07:20:41.858Z,21.69
2023-05-24T07:23:09.607Z,21.54
2023-05-24T07:25:37.023Z,21.76
2023-05-24T07:28:04.475Z,21.89
2023-05-24T07:30:32.860Z,21.96
2023-05-24T07:33:01.932Z,22.07
2023-05-24T07:35:29.691Z,22.11
2023-05-24T07:37:57.120Z,22.18
2023-05-24T07:40:24.640Z,22.31
2023-05-24T07:42:52.174Z,22.34
2023-05-24T07:45:19.729Z,22.34
2023-05-24T07:47:47.394Z,22.45
2023-05-24T07:50:15.158Z,22.58
2023-05-24T07:52:42.472Z,22.49
2023-05-24T07:55:10.073Z,22.51
2023-05-24T07:57:37.547Z,22.57
2023-05-24T08:00:10.776Z,22.47
2023-05-24T08:02:41.766Z,22.63
2023-05-24T08:05:10.315Z,22.70
2023-05-24T08:07:37.742Z,23.11
2023-05-24T08:10:05.436Z,22.97
2023-05-24T08:12:33.086Z,22.89
2023-05-24T08:15:00.599Z,22.88
2023-05-24T08:17:28.060Z,22.91
2023-05-24T08:19:56.267Z,23.22
2023-05-24T08:22:23.595Z,23.51
2023-05-24T08:24:52.338Z,23.77
2023-05-24T08:27:19.740Z,23.91
2023-05-24T08:29:47.221Z,23.81
2023-05-24T08:32:14.693Z,23.34
2023-05-24T08:34:42.197Z,23.63
2023-05-24T08:37:10.540Z,23.82
2023-05-24T08:39:37.929Z,23.93
2023-05-24T08:42:09.282Z,24.22
2023-05-24T08:44:53.672Z,24.56
2023-05-24T08:47:22.047Z,24.98
2023-05-24T08:49:50.947Z,25.04
2023-05-24T08:52:19.668Z,24.95
2023-05-24T08:54:47.079Z,24.98
2023-05-24T08:57:15.736Z,25.05
2023-05-24T08:59:45.785Z,25.11
2023-05-24T09:02:14.627Z,25.16
2023-05-24T09:04:44.496Z,25.19
2023-05-24T09:07:14.063Z,25.32
2023-05-24T09:09:45.395Z,25.34
2023-05-24T09:12:21.781Z,25.30
2023-05-24T09:14:56.278Z,25.49
2023-05-24T09:17:23.884Z,25.66
2023-05-24T09:19:53.166Z,25.58
2023-05-24T09:22:26.038Z,25.53
2023-05-24T09:24:53.848Z,25.64
2023-05-24T09:27:22.288Z,25.57
2023-05-24T09:29:51.832Z,25.33
2023-05-24T09:32:22.040Z,25.50
2023-05-24T09:34:49.804Z,25.63
2023-05-24T09:37:18.110Z,25.75
2023-05-24T09:39:48.198Z,25.80
2023-05-24T09:42:16.797Z,25.76
2023-05-24T09:44:44.476Z,25.90
2023-05-24T09:47:12.939Z,25.69
2023-05-24T09:49:40.491Z,25.76
2023-05-24T09:52:08.150Z,25.91
2023-05-24T09:54:36.278Z,26.07
2023-05-24T09:57:05.091Z,26.20
2023-05-24T09:59:34.092Z,26.08
2023-05-24T10:02:10.419Z,26.11
2023-05-24T10:04:41.204Z,26.10
2023-05-24T10:07:08.858Z,26.11
2023-05-24T10:09:36.680Z,26.22
2023-05-24T10:12:08.261Z,26.01
2023-05-24T10:14:36.982Z,26.26
2023-05-24T10:17:11.007Z,25.91
2023-05-24T10:19:38.487Z,25.98
2023-05-24T10:22:09.951Z,26.12
2023-05-24T10:24:43.829Z,26.21
2023-05-24T10:27:14.198Z,26.43
2023-05-24T10:30:08.581Z,26.50
2023-05-24T10:32:38.222Z,26.61
2023-05-24T10:35:06.650Z,26.57
2023-05-24T10:37:34.343Z,26.74
2023-05-24T10:40:01.756Z,26.86
2023-05-24T10:42:31.470Z,26.76
2023-05-24T10:44:58.947Z,27.13
2023-05-24T10:47:28.809Z,27.04
2023-05-24T10:49:59.134Z,27.03
2023-05-24T10:52:36.677Z,27.20
2023-05-24T10:55:09.632Z,27.32
2023-05-24T10:57:38.465Z,27.27
2023-05-24T11:00:33.827Z,27.08
2023-05-24T11:03:09.162Z,27.22
2023-05-24T11:05:50.117Z,27.18
2023-05-24T11:08:24.738Z,27.08
2023-05-24T11:11:22.162Z,26.97
2023-05-24T11:13:56.007Z,26.81
2023-05-24T11:16:33.161Z,26.65
2023-05-24T11:19:11.546Z,26.79
2023-05-24T11:21:39.793Z,26.88
2023-05-24T11:24:07.338Z,26.92
2023-05-24T11:26:34.955Z,26.81
2023-05-24T11:29:05.311Z,26.69
2023-05-24T11:31:33.100Z,26.57
2023-05-24T11:34:01.256Z,26.65
2023-05-24T11:36:28.996Z,26.74
2023-05-24T11:38:56.424Z,26.58
2023-05-24T11:41:23.847Z,26.48
2023-05-24T11:43:51.160Z,26.26
2023-05-24T11:46:20.320Z,26.25
2023-05-24T11:48:57.149Z,26.27
2023-05-24T11:51:31.262Z,26.13
2023-05-24T11:53:59.119Z,26.50
2023-05-24T11:56:30.282Z,26.73
2023-05-24T11:59:31.768Z,26.76
2023-05-24T12:02:00.469Z,26.66
2023-05-24T12:04:28.617Z,26.74
2023-05-24T12:06:56.195Z,26.80
2023-05-24T12:09:23.814Z,26.93
2023-05-24T12:11:51.943Z,26.99
2023-05-24T12:14:20.076Z,27.18
2023-05-24T12:16:47.529Z,27.15
2023-05-24T12:19:31.667Z,27.31
2023-05-24T12:22:01.398Z,27.43
2023-05-24T12:24:33.433Z,27.25
2023-05-24T12:27:08.809Z,26.87
2023-05-24T12:29:37.864Z,26.87
2023-05-24T12:32:05.907Z,26.82
2023-05-24T12:34:33.201Z,26.96
2023-05-24T12:37:00.713Z,27.08
2023-05-24T12:39:32.329Z,27.46
2023-05-24T12:42:01.884Z,27.49
2023-05-24T12:44:34.718Z,27.46
2023-05-24T12:47:03.206Z,27.35
2023-05-24T12:49:31.651Z,27.38
2023-05-24T12:51:59.413Z,27.30
2023-05-24T12:54:28.041Z,27.23
2023-05-24T12:56:56.924Z,27.21
2023-05-24T12:59:25.653Z,27.03
2023-05-24T13:01:53.281Z,27.18
2023-05-24T13:04:22.007Z,27.09
2023-05-24T13:06:49.578Z,27.31
2023-05-24T13:09:21.907Z,27.42
2023-05-24T13:11:49.630Z,27.39
2023-05-24T13:14:18.239Z,27.36
2023-05-24T13:16:46.140Z,27.35
2023-05-24T13:19:13.642Z,27.31
2023-05-24T13:21:41.403Z,27.10
2023-05-24T13:24:09.238Z,26.99
2023-05-24T13:26:38.131Z,26.69
2023-05-24T13:31:40.989Z,27.10
2023-05-24T13:34:10.751Z,27.17
2023-05-24T13:36:38.471Z,27.18
2023-05-24T13:39:15.618Z,27.20
2023-05-24T13:41:44.760Z,26.89
2023-05-24T13:44:13.344Z,27.03
2023-05-24T13:46:41.212Z,27.17
2023-05-24T13:49:12.084Z,27.15
2023-05-24T13:51:39.871Z,27.25
2023-05-24T13:54:08.093Z,27.11
2023-05-24T13:56:36.649Z,27.14
2023-05-24T13:59:04.610Z,27.28
2023-05-24T14:01:33.146Z,27.14
2023-05-24T14:04:01.826Z,27.07
2023-05-24T14:06:29.423Z,27.18
2023-05-24T14:08:56.992Z,27.01
2023-05-24T14:11:25.654Z,26.92
2023-05-24T14:16:24.263Z,27.03
2023-05-24T14:18:51.951Z,27.21
2023-05-24T14:21:19.855Z,27.20
2023-05-24T14:23:47.570Z,27.17
2023-05-24T14:26:14.924Z,27.17
2023-05-24T14:28:42.281Z,27.11
2023-05-24T14:31:09.770Z,27.02
2023-05-24T14:33:38.545Z,27.18
2023-05-24T14:36:06.398Z,27.18
2023-05-24T14:38:33.880Z,27.13
2023-05-24T14:41:01.747Z,27.26
2023-05-24T14:43:29.344Z,27.31
2023-05-24T14:45:56.693Z,27.33
2023-05-24T14:48:24.257Z,27.36
2023-05-24T14:50:51.562Z,27.39
2023-05-24T14:53:18.930Z,27.44
2023-05-24T14:55:46.564Z,27.27
2023-05-24T14:58:14.161Z,26.80
2023-05-24T15:00:42.282Z,27.02
2023-05-24T15:03:11.498Z,27.12
2023-05-24T15:05:39.845Z,27.16
2023-05-24T15:08:08.076Z,26.59
2023-05-24T15:10:35.639Z,26.71
2023-05-24T15:13:03.943Z,26.70
2023-05-24T15:15:31.795Z,26.92
2023-05-24T15:18:00.128Z,26.83
2023-05-24T15:20:27.858Z,26.78
2023-05-24T15:22:55.581Z,26.68
2023-05-24T15:25:22.847Z,26.57
2023-05-24T15:27:50.163Z,26.28
2023-05-24T15:30:19.297Z,26.23
2023-05-24T15:32:46.867Z,26.06
2023-05-24T15:35:14.465Z,25.91
2023-05-24T15:37:42.820Z,25.94
2023-05-24T15:40:10.900Z,25.84
2023-05-24T15:42:38.252Z,25.81
2023-05-24T15:45:05.894Z,25.81
2023-05-24T15:47:38.186Z,25.80
2023-05-24T15:50:06.913Z,25.70
2023-05-24T15:52:35.147Z,25.73
2023-05-24T15:55:02.655Z,25.61
2023-05-24T15:57:30.947Z,25.51
2023-05-24T15:59:58.402Z,25.38
2023-05-24T16:02:26.001Z,25.30
2023-05-24T16:04:54.438Z,25.26
2023-05-24T16:07:21.840Z,25.19
2023-05-24T16:09:51.056Z,25.13
2023-05-24T16:12:18.844Z,25.06
2023-05-24T16:14:46.673Z,25.05
2023-05-24T16:17:15.369Z,25.00
2023-05-24T16:19:42.926Z,25.03
2023-05-24T16:22:10.400Z,25.03
2023-05-24T16:24:37.740Z,25.03
2023-05-24T16:27:05.254Z,25.00
2023-05-24T16:29:32.661Z,24.85
2023-05-24T16:32:00.249Z,24.78
2023-05-24T16:34:27.732Z,24.76
2023-05-24T16:36:55.186Z,24.65
2023-05-24T16:39:22.549Z,24.64
2023-05-24T16:41:49.869Z,24.43
2023-05-24T16:44:20.050Z,24.31
2023-05-24T16:46:47.749Z,24.30
2023-05-24T16:49:15.365Z,24.19
2023-05-24T16:51:42.640Z,24.21
2023-05-24T16:54:10.000Z,24.31
2023-05-24T16:56:38.154Z,24.18
2023-05-24T16:59:05.824Z,24.26
2023-05-24T17:01:33.352Z,24.01
2023-05-24T17:04:00.855Z,23.75
2023-05-24T17:06:28.514Z,23.83
2023-05-24T17:08:55.950Z,23.66
2023-05-24T17:11:23.464Z,23.64
2023-05-24T17:13:51.796Z,23.53
2023-05-24T17:16:19.381Z,23.50
2023-05-24T17:18:46.967Z,23.41
2023-05-24T17:21:14.529Z,23.31
2023-05-24T17:23:42.049Z,23.28
2023-05-24T17:26:09.755Z,23.32
2023-05-24T17:28:37.214Z,23.36
2023-05-24T17:31:04.620Z,23.31
2023-05-24T17:33:32.410Z,23.11
2023-05-24T17:36:04.462Z,23.01
2023-05-24T17:38:33.251Z,22.83
2023-05-24T17:41:00.900Z,22.89
2023-05-24T17:43:34.097Z,22.84
2023-05-24T17:46:04.227Z,22.61
2023-05-24T17:48:34.854Z,22.64
2023-05-24T17:51:04.253Z,22.56
2023-05-24T17:53:33.541Z,22.63
2023-05-24T17:56:01.737Z,22.58
2023-05-24T17:58:36.059Z,22.53
2023-05-24T18:01:05.373Z,22.45
2023-05-24T18:03:33.662Z,22.43
2023-05-24T18:06:01.495Z,22.34
2023-05-24T18:08:28.963Z,22.44
2023-05-24T18:10:56.472Z,22.31
2023-05-24T18:13:23.779Z,21.54
2023-05-24T18:15:51.335Z,21.20
2023-05-24T18:18:18.807Z,20.87
2023-05-24T18:20:46.241Z,20.79
2023-05-24T18:23:13.659Z,20.52
2023-05-24T18:25:41.198Z,20.57
2023-05-24T18:28:08.598Z,20.41
2023-05-24T18:30:35.915Z,20.40
2023-05-24T18:33:08.060Z,20.29
2023-05-24T18:35:36.048Z,20.17
2023-05-24T18:38:04.160Z,20.10
2023-05-24T18:40:31.603Z,20.10
2023-05-24T18:42:59.018Z,20.19
2023-05-24T18:45:26.517Z,20.16
2023-05-24T18:47:54.367Z,20.18
2023-05-24T18:50:23.521Z,20.00
2023-05-24T18:52:51.168Z,20.11
2023-05-24T18:55:18.778Z,20.25
2023-05-24T18:57:46.417Z,20.35
2023-05-24T19:00:14.005Z,20.36
2023-05-24T19:02:41.420Z,20.33
2023-05-24T19:05:09.251Z,20.27
2023-05-24T19:07:36.922Z,20.35
2023-05-24T19:10:04.672Z,20.39
2023-05-24T19:12:32.118Z,20.38
2023-05-24T19:15:00.248Z,20.50
2023-05-24T19:17:27.673Z,20.51
2023-05-24T19:19:55.396Z,20.57
2023-05-24T19:22:22.925Z,20.49
2023-05-24T19:24:56.691Z,20.44
2023-05-24T19:27:24.701Z,20.41
2023-05-24T19:29:52.262Z,20.32
2023-05-24T19:32:20.608Z,20.30
2023-05-24T19:34:47.967Z,20.22
2023-05-24T19:37:16.514Z,20.10
2023-05-24T19:39:44.004Z,19.93
2023-05-24T19:42:12.034Z,19.89
2023-05-24T19:44:39.492Z,19.83
2023-05-24T19:47:07.122Z,19.82
2023-05-24T19:49:34.600Z,19.82
2023-05-24T19:52:02.147Z,19.80
2023-05-24T19:54:31.310Z,19.78
2023-05-24T20:00:14.069Z,19.80
2023-05-24T20:02:41.667Z,19.88
2023-05-24T20:05:09.855Z,20.07
2023-05-24T20:07:37.661Z,20.15
2023-05-24T20:10:15.845Z,20.15
2023-05-24T20:13:02.046Z,19.95
2023-05-24T20:15:30.830Z,19.84
2023-05-24T20:18:24.027Z,19.72
2023-05-24T20:20:52.708Z,19.63
2023-05-24T20:23:39.554Z,19.59
2023-05-24T20:26:13.241Z,19.68
2023-05-24T20:28:43.097Z,19.67
2023-05-24T20:31:18.148Z,19.71
2023-05-24T20:33:50.572Z,19.51
2023-05-24T20:39:47.479Z,19.57
2023-05-24T20:42:19.864Z,19.54
2023-05-24T20:44:53.520Z,19.47
2023-05-24T20:47:30.586Z,19.44
2023-05-24T20:50:18.142Z,19.50
2023-05-24T20:52:49.345Z,19.53
2023-05-24T20:55:39.385Z,19.52
2023-05-24T20:58:23.758Z,19.43
2023-05-24T21:01:02.299Z,19.46
2023-05-24T21:03:35.032Z,19.46
2023-05-24T21:06:03.262Z,19.52
2023-05-24T21:08:30.856Z,19.55
2023-05-24T21:11:03.380Z,19.53
2023-05-24T21:13:33.839Z,19.55
2023-05-24T21:16:02.377Z,19.56
2023-05-24T21:18:35.860Z,19.59
2023-05-24T21:21:09.134Z,19.49
2023-05-24T21:23:36.958Z,19.55
2023-05-24T21:26:14.072Z,19.45
2023-05-24T21:28:41.944Z,19.38
2023-05-24T21:31:09.467Z,19.28
2023-05-24T21:33:37.881Z,19.18
2023-05-24T21:36:05.626Z,19.15
2023-05-24T21:38:35.854Z,19.07
2023-05-24T21:41:06.631Z,19.04
2023-05-24T21:43:34.486Z,18.98
2023-05-24T21:46:02.020Z,18.93
2023-05-24T21:48:31.714Z,18.90
2023-05-24T21:51:07.069Z,18.80
2023-05-24T21:53:35.276Z,18.74
2023-05-24T21:56:03.085Z,18.58
2023-05-24T21:58:30.636Z,18.50
2023-05-24T22:01:01.171Z,18.49
2023-05-24T22:03:28.905Z,18.42
2023-05-24T22:05:57.898Z,18.35
2023-05-24T22:08:33.995Z,18.34
2023-05-24T22:11:07.069Z,18.30
2023-05-24T22:13:37.486Z,18.37
2023-05-24T22:16:06.655Z,18.38
2023-05-24T22:18:34.875Z,18.29
2023-05-24T22:21:12.585Z,18.33
2023-05-24T22:23:44.777Z,18.41
2023-05-24T22:26:12.937Z,18.38
2023-05-24T22:29:21.858Z,18.31
2023-05-24T22:31:49.404Z,18.23
2023-05-24T22:34:36.587Z,18.22
2023-05-24T22:37:09.769Z,18.30
2023-05-24T22:39:38.132Z,18.34
2023-05-24T22:42:28.143Z,18.31
2023-05-24T22:45:00.852Z,18.24
2023-05-24T22:47:43.360Z,18.32
2023-05-24T22:50:16.946Z,18.45
2023-05-24T22:52:48.868Z,18.69
2023-05-24T22:55:19.594Z,18.91
2023-05-24T22:57:52.348Z,19.28
2023-05-24T23:00:23.235Z,19.51
2023-05-24T23:02:53.885Z,19.67
2023-05-24T23:05:21.804Z,19.83
2023-05-24T23:07:53.333Z,19.84
2023-05-24T23:10:30.984Z,19.86
2023-05-24T23:13:05.735Z,20.01
2023-05-24T23:15:43.755Z,19.97
2023-05-24T23:21:04.731Z,20.11
2023-05-24T23:26:16.721Z,20.14
2023-05-24T23:28:46.533Z,20.19
2023-05-24T23:31:14.511Z,20.20
2023-05-24T23:33:42.245Z,20.25
2023-05-24T23:36:10.000Z,20.25
2023-05-24T23:38:37.787Z,20.22
2023-05-24T23:41:05.172Z,20.31
2023-05-24T23:43:32.558Z,20.31
2023-05-24T23:46:00.040Z,20.31
2023-05-24T23:48:27.465Z,20.28
2023-05-24T23:50:55.003Z,20.31
2023-05-24T23:53:22.595Z,20.34
2023-05-24T23:55:52.749Z,20.33
2023-05-24T23:58:20.284Z,20.26
